sensor_id;sensor_type;location;lat;lon;timestamp;P1;durP1;ratioP1;P2;durP2;ratioP2
50519;SDS011;36468;44.098;3.078;2022-08-19T00:00:14;4.45;;;1.00;;
50519;SDS011;36468;44.098;3.078;2022-08-19T00:02:41;6.25;;;1.00;;
50519;SDS011;36468;44.098;3.078;2022-08-19T00:05:07;1.00;;;0.70;;
50519;SDS011;36468;44.098;3.078;2022-08-19T00:07:34;2.22;;;1.00;;
50519;SDS011;36468;44.098;3.078;2022-08-19T00:10:00;3.40;;;0.77;;
50519;SDS011;36468;44.098;3.078;2022-08-19T00:12:26;5.35;;;1.17;;
50519;SDS011;36468;44.098;3.078;2022-08-19T00:14:52;3.33;;;1.30;;
50519;SDS011;36468;44.098;3.078;2022-08-19T00:17:19;2.70;;;1.15;;
50519;SDS011;36468;44.098;3.078;2022-08-19T00:19:45;1.70;;;0.95;;
50519;SDS011;36468;44.098;3.078;2022-08-19T00:22:11;3.03;;;0.90;;
50519;SDS011;36468;44.098;3.078;2022-08-19T00:24:37;2.50;;;1.20;;
50519;SDS011;36468;44.098;3.078;2022-08-19T00:27:04;4.20;;;1.13;;
50519;SDS011;36468;44.098;3.078;2022-08-19T00:29:30;3.60;;;1.02;;
50519;SDS011;36468;44.098;3.078;2022-08-19T00:31:57;3.17;;;1.10;;
50519;SDS011;36468;44.098;3.078;2022-08-19T00:34:24;1.25;;;0.93;;
50519;SDS011;36468;44.098;3.078;2022-08-19T00:36:54;3.85;;;1.20;;
50519;SDS011;36468;44.098;3.078;2022-08-19T00:39:20;2.55;;;1.20;;
50519;SDS011;36468;44.098;3.078;2022-08-19T00:41:46;2.47;;;1.02;;
50519;SDS011;36468;44.098;3.078;2022-08-19T00:44:15;2.90;;;1.40;;
50519;SDS011;36468;44.098;3.078;2022-08-19T00:46:44;3.55;;;1.20;;
50519;SDS011;36468;44.098;3.078;2022-08-19T00:51:47;2.67;;;1.50;;
50519;SDS011;36468;44.098;3.078;2022-08-19T00:54:14;4.05;;;1.40;;
50519;SDS011;36468;44.098;3.078;2022-08-19T00:56:41;3.50;;;1.58;;
50519;SDS011;36468;44.098;3.078;2022-08-19T00:59:07;7.82;;;1.45;;
50519;SDS011;36468;44.098;3.078;2022-08-19T01:01:37;2.80;;;1.52;;
50519;SDS011;36468;44.098;3.078;2022-08-19T01:04:04;3.22;;;1.52;;
50519;SDS011;36468;44.098;3.078;2022-08-19T01:06:30;3.33;;;1.60;;
50519;SDS011;36468;44.098;3.078;2022-08-19T01:08:58;3.08;;;1.48;;
50519;SDS011;36468;44.098;3.078;2022-08-19T01:11:24;5.60;;;1.50;;
50519;SDS011;36468;44.098;3.078;2022-08-19T01:13:51;2.67;;;1.20;;
50519;SDS011;36468;44.098;3.078;2022-08-19T01:16:18;4.03;;;1.80;;
50519;SDS011;36468;44.098;3.078;2022-08-19T01:18:45;5.15;;;1.95;;
50519;SDS011;36468;44.098;3.078;2022-08-19T01:21:25;4.55;;;1.90;;
50519;SDS011;36468;44.098;3.078;2022-08-19T01:23:52;2.47;;;1.50;;
50519;SDS011;36468;44.098;3.078;2022-08-19T01:26:19;3.80;;;1.90;;
50519;SDS011;36468;44.098;3.078;2022-08-19T01:28:47;3.42;;;1.80;;
50519;SDS011;36468;44.098;3.078;2022-08-19T01:31:14;3.63;;;1.80;;
50519;SDS011;36468;44.098;3.078;2022-08-19T01:33:41;4.57;;;2.13;;
50519;SDS011;36468;44.098;3.078;2022-08-19T01:36:09;4.18;;;2.13;;
50519;SDS011;36468;44.098;3.078;2022-08-19T01:38:37;5.03;;;2.08;;
50519;SDS011;36468;44.098;3.078;2022-08-19T01:41:04;8.70;;;2.40;;
50519;SDS011;36468;44.098;3.078;2022-08-19T01:43:30;7.55;;;2.28;;
50519;SDS011;36468;44.098;3.078;2022-08-19T01:45:57;3.53;;;2.00;;
50519;SDS011;36468;44.098;3.078;2022-08-19T01:48:23;4.25;;;2.13;;
50519;SDS011;36468;44.098;3.078;2022-08-19T01:50:49;2.75;;;1.83;;
50519;SDS011;36468;44.098;3.078;2022-08-19T01:53:15;2.20;;;2.00;;
50519;SDS011;36468;44.098;3.078;2022-08-19T01:55:42;4.45;;;2.42;;
50519;SDS011;36468;44.098;3.078;2022-08-19T01:58:10;3.85;;;2.20;;
50519;SDS011;36468;44.098;3.078;2022-08-19T02:00:37;4.40;;;2.80;;
50519;SDS011;36468;44.098;3.078;2022-08-19T02:03:04;3.88;;;2.67;;
50519;SDS011;36468;44.098;3.078;2022-08-19T02:05:31;6.70;;;3.17;;
50519;SDS011;36468;44.098;3.078;2022-08-19T02:07:57;7.45;;;3.20;;
50519;SDS011;36468;44.098;3.078;2022-08-19T02:10:24;5.05;;;3.30;;
50519;SDS011;36468;44.098;3.078;2022-08-19T02:12:50;4.32;;;3.17;;
50519;SDS011;36468;44.098;3.078;2022-08-19T02:15:17;9.02;;;4.43;;
50519;SDS011;36468;44.098;3.078;2022-08-19T02:17:44;5.55;;;3.63;;
50519;SDS011;36468;44.098;3.078;2022-08-19T02:20:10;5.22;;;3.78;;
50519;SDS011;36468;44.098;3.078;2022-08-19T02:22:38;6.78;;;4.18;;
50519;SDS011;36468;44.098;3.078;2022-08-19T02:25:05;6.05;;;3.72;;
50519;SDS011;36468;44.098;3.078;2022-08-19T02:27:31;11.02;;;4.15;;
50519;SDS011;36468;44.098;3.078;2022-08-19T02:29:59;7.80;;;3.38;;
50519;SDS011;36468;44.098;3.078;2022-08-19T02:32:25;6.72;;;3.55;;
50519;SDS011;36468;44.098;3.078;2022-08-19T02:34:52;6.18;;;3.90;;
50519;SDS011;36468;44.098;3.078;2022-08-19T02:37:18;6.53;;;4.00;;
50519;SDS011;36468;44.098;3.078;2022-08-19T02:40:03;5.25;;;4.00;;
50519;SDS011;36468;44.098;3.078;2022-08-19T02:42:29;7.18;;;3.90;;
50519;SDS011;36468;44.098;3.078;2022-08-19T02:44:56;7.40;;;3.97;;
50519;SDS011;36468;44.098;3.078;2022-08-19T02:47:22;7.90;;;4.20;;
50519;SDS011;36468;44.098;3.078;2022-08-19T02:49:48;7.22;;;4.32;;
50519;SDS011;36468;44.098;3.078;2022-08-19T02:52:17;7.35;;;4.43;;
50519;SDS011;36468;44.098;3.078;2022-08-19T02:54:43;9.02;;;4.53;;
50519;SDS011;36468;44.098;3.078;2022-08-19T02:57:09;7.80;;;5.15;;
50519;SDS011;36468;44.098;3.078;2022-08-19T02:59:35;8.35;;;4.78;;
50519;SDS011;36468;44.098;3.078;2022-08-19T03:02:01;10.10;;;5.10;;
50519;SDS011;36468;44.098;3.078;2022-08-19T03:04:27;8.35;;;4.70;;
50519;SDS011;36468;44.098;3.078;2022-08-19T03:06:54;8.35;;;4.97;;
50519;SDS011;36468;44.098;3.078;2022-08-19T03:09:20;8.73;;;4.80;;
50519;SDS011;36468;44.098;3.078;2022-08-19T03:11:46;7.93;;;4.70;;
50519;SDS011;36468;44.098;3.078;2022-08-19T03:14:12;14.50;;;4.80;;
50519;SDS011;36468;44.098;3.078;2022-08-19T03:16:41;9.65;;;5.35;;
50519;SDS011;36468;44.098;3.078;2022-08-19T03:19:08;10.25;;;4.75;;
50519;SDS011;36468;44.098;3.078;2022-08-19T03:21:34;7.60;;;5.10;;
50519;SDS011;36468;44.098;3.078;2022-08-19T03:24:02;13.02;;;5.93;;
50519;SDS011;36468;44.098;3.078;2022-08-19T03:26:29;10.63;;;5.65;;
50519;SDS011;36468;44.098;3.078;2022-08-19T03:28:55;12.10;;;5.78;;
50519;SDS011;36468;44.098;3.078;2022-08-19T03:31:22;7.28;;;5.45;;
50519;SDS011;36468;44.098;3.078;2022-08-19T03:33:49;12.80;;;5.78;;
50519;SDS011;36468;44.098;3.078;2022-08-19T03:36:16;11.02;;;5.72;;
50519;SDS011;36468;44.098;3.078;2022-08-19T03:38:44;10.82;;;5.32;;
50519;SDS011;36468;44.098;3.078;2022-08-19T03:41:12;10.30;;;5.32;;
50519;SDS011;36468;44.098;3.078;2022-08-19T03:43:39;8.15;;;5.50;;
50519;SDS011;36468;44.098;3.078;2022-08-19T03:46:06;9.68;;;5.53;;
50519;SDS011;36468;44.098;3.078;2022-08-19T03:48:33;9.52;;;5.90;;
50519;SDS011;36468;44.098;3.078;2022-08-19T03:50:59;8.60;;;5.85;;
50519;SDS011;36468;44.098;3.078;2022-08-19T03:53:26;10.00;;;6.60;;
50519;SDS011;36468;44.098;3.078;2022-08-19T03:55:53;8.45;;;5.32;;
50519;SDS011;36468;44.098;3.078;2022-08-19T03:58:20;9.77;;;5.72;;
50519;SDS011;36468;44.098;3.078;2022-08-19T04:00:46;12.00;;;6.45;;
50519;SDS011;36468;44.098;3.078;2022-08-19T04:03:12;10.30;;;5.90;;
50519;SDS011;36468;44.098;3.078;2022-08-19T04:05:38;7.93;;;5.78;;
50519;SDS011;36468;44.098;3.078;2022-08-19T04:08:04;9.27;;;5.45;;
50519;SDS011;36468;44.098;3.078;2022-08-19T04:10:31;9.60;;;5.88;;
50519;SDS011;36468;44.098;3.078;2022-08-19T04:12:57;7.60;;;5.68;;
50519;SDS011;36468;44.098;3.078;2022-08-19T04:15:23;7.05;;;5.78;;
50519;SDS011;36468;44.098;3.078;2022-08-19T04:17:49;7.97;;;5.47;;
50519;SDS011;36468;44.098;3.078;2022-08-19T04:20:15;8.82;;;5.75;;
50519;SDS011;36468;44.098;3.078;2022-08-19T04:22:41;9.85;;;6.32;;
50519;SDS011;36468;44.098;3.078;2022-08-19T04:25:07;9.90;;;6.05;;
50519;SDS011;36468;44.098;3.078;2022-08-19T04:27:34;8.25;;;6.15;;
50519;SDS011;36468;44.098;3.078;2022-08-19T04:30:00;10.00;;;6.07;;
50519;SDS011;36468;44.098;3.078;2022-08-19T04:32:26;9.20;;;5.63;;
50519;SDS011;36468;44.098;3.078;2022-08-19T04:34:52;10.38;;;6.40;;
50519;SDS011;36468;44.098;3.078;2022-08-19T04:37:21;7.50;;;5.60;;
50519;SDS011;36468;44.098;3.078;2022-08-19T04:39:48;13.25;;;6.20;;
50519;SDS011;36468;44.098;3.078;2022-08-19T04:42:32;8.50;;;5.75;;
50519;SDS011;36468;44.098;3.078;2022-08-19T04:45:08;10.98;;;6.30;;
50519;SDS011;36468;44.098;3.078;2022-08-19T04:47:35;11.00;;;5.90;;
50519;SDS011;36468;44.098;3.078;2022-08-19T04:50:02;9.35;;;6.65;;
50519;SDS011;36468;44.098;3.078;2022-08-19T04:52:28;9.65;;;6.65;;
50519;SDS011;36468;44.098;3.078;2022-08-19T04:54:56;12.68;;;7.93;;
50519;SDS011;36468;44.098;3.078;2022-08-19T04:57:22;11.38;;;6.88;;
50519;SDS011;36468;44.098;3.078;2022-08-19T04:59:48;9.05;;;6.57;;
50519;SDS011;36468;44.098;3.078;2022-08-19T05:02:14;14.70;;;7.22;;
50519;SDS011;36468;44.098;3.078;2022-08-19T05:04:40;11.32;;;6.55;;
50519;SDS011;36468;44.098;3.078;2022-08-19T05:07:07;9.55;;;6.28;;
50519;SDS011;36468;44.098;3.078;2022-08-19T05:09:34;13.65;;;6.97;;
50519;SDS011;36468;44.098;3.078;2022-08-19T05:12:01;13.90;;;6.80;;
50519;SDS011;36468;44.098;3.078;2022-08-19T05:14:27;13.23;;;6.65;;
50519;SDS011;36468;44.098;3.078;2022-08-19T05:16:54;11.60;;;6.25;;
50519;SDS011;36468;44.098;3.078;2022-08-19T05:19:20;9.95;;;6.40;;
50519;SDS011;36468;44.098;3.078;2022-08-19T05:22:04;13.05;;;7.00;;
50519;SDS011;36468;44.098;3.078;2022-08-19T05:24:49;12.13;;;6.90;;
50519;SDS011;36468;44.098;3.078;2022-08-19T05:27:15;10.35;;;6.72;;
50519;SDS011;36468;44.098;3.078;2022-08-19T05:29:41;12.18;;;6.55;;
50519;SDS011;36468;44.098;3.078;2022-08-19T05:32:07;11.00;;;6.45;;
50519;SDS011;36468;44.098;3.078;2022-08-19T05:34:35;10.73;;;6.20;;
50519;SDS011;36468;44.098;3.078;2022-08-19T05:37:03;8.65;;;5.78;;
50519;SDS011;36468;44.098;3.078;2022-08-19T05:39:30;7.30;;;6.03;;
50519;SDS011;36468;44.098;3.078;2022-08-19T05:42:01;8.10;;;5.75;;
50519;SDS011;36468;44.098;3.078;2022-08-19T05:44:28;10.65;;;6.13;;
50519;SDS011;36468;44.098;3.078;2022-08-19T05:46:56;10.43;;;5.43;;
50519;SDS011;36468;44.098;3.078;2022-08-19T05:49:23;7.65;;;5.18;;
50519;SDS011;36468;44.098;3.078;2022-08-19T05:51:50;9.27;;;5.38;;
50519;SDS011;36468;44.098;3.078;2022-08-19T05:54:17;8.98;;;5.05;;
50519;SDS011;36468;44.098;3.078;2022-08-19T05:56:44;9.80;;;5.53;;
50519;SDS011;36468;44.098;3.078;2022-08-19T05:59:12;9.55;;;6.10;;
50519;SDS011;36468;44.098;3.078;2022-08-19T06:01:38;9.82;;;5.43;;
50519;SDS011;36468;44.098;3.078;2022-08-19T06:04:05;9.13;;;5.18;;
50519;SDS011;36468;44.098;3.078;2022-08-19T06:06:31;6.72;;;5.00;;
50519;SDS011;36468;44.098;3.078;2022-08-19T06:08:59;8.60;;;5.65;;
50519;SDS011;36468;44.098;3.078;2022-08-19T06:11:33;8.23;;;5.05;;
50519;SDS011;36468;44.098;3.078;2022-08-19T06:14:00;6.85;;;4.80;;
50519;SDS011;36468;44.098;3.078;2022-08-19T06:16:27;12.38;;;4.90;;
50519;SDS011;36468;44.098;3.078;2022-08-19T06:18:54;8.93;;;5.10;;
50519;SDS011;36468;44.098;3.078;2022-08-19T06:21:22;9.50;;;5.82;;
50519;SDS011;36468;44.098;3.078;2022-08-19T06:23:49;12.45;;;5.90;;
50519;SDS011;36468;44.098;3.078;2022-08-19T06:26:17;9.38;;;5.40;;
50519;SDS011;36468;44.098;3.078;2022-08-19T06:28:44;8.40;;;5.07;;
50519;SDS011;36468;44.098;3.078;2022-08-19T06:31:17;9.15;;;4.97;;
50519;SDS011;36468;44.098;3.078;2022-08-19T06:33:45;9.25;;;4.60;;
50519;SDS011;36468;44.098;3.078;2022-08-19T06:38:46;7.90;;;5.13;;
50519;SDS011;36468;44.098;3.078;2022-08-19T06:41:12;8.15;;;5.18;;
50519;SDS011;36468;44.098;3.078;2022-08-19T06:43:38;9.13;;;4.97;;
50519;SDS011;36468;44.098;3.078;2022-08-19T06:46:09;8.25;;;4.95;;
50519;SDS011;36468;44.098;3.078;2022-08-19T06:48:36;7.80;;;4.95;;
50519;SDS011;36468;44.098;3.078;2022-08-19T06:51:02;9.30;;;4.82;;
50519;SDS011;36468;44.098;3.078;2022-08-19T06:53:30;9.40;;;4.63;;
50519;SDS011;36468;44.098;3.078;2022-08-19T06:55:56;9.48;;;4.68;;
50519;SDS011;36468;44.098;3.078;2022-08-19T06:58:27;5.95;;;4.32;;
50519;SDS011;36468;44.098;3.078;2022-08-19T07:00:56;7.93;;;4.47;;
50519;SDS011;36468;44.098;3.078;2022-08-19T07:03:27;7.57;;;4.57;;
50519;SDS011;36468;44.098;3.078;2022-08-19T07:05:53;8.07;;;4.78;;
50519;SDS011;36468;44.098;3.078;2022-08-19T07:08:19;6.25;;;4.13;;
50519;SDS011;36468;44.098;3.078;2022-08-19T07:10:45;10.40;;;4.32;;
50519;SDS011;36468;44.098;3.078;2022-08-19T07:13:13;4.90;;;4.07;;
50519;SDS011;36468;44.098;3.078;2022-08-19T07:15:39;6.22;;;4.32;;
50519;SDS011;36468;44.098;3.078;2022-08-19T07:18:05;6.65;;;5.00;;
50519;SDS011;36468;44.098;3.078;2022-08-19T07:20:31;9.27;;;4.18;;
50519;SDS011;36468;44.098;3.078;2022-08-19T07:22:57;7.40;;;4.55;;
50519;SDS011;36468;44.098;3.078;2022-08-19T07:25:23;8.23;;;5.60;;
50519;SDS011;36468;44.098;3.078;2022-08-19T07:27:49;6.32;;;4.60;;
50519;SDS011;36468;44.098;3.078;2022-08-19T07:30:16;9.52;;;4.70;;
50519;SDS011;36468;44.098;3.078;2022-08-19T07:32:42;7.40;;;4.57;;
50519;SDS011;36468;44.098;3.078;2022-08-19T07:35:08;10.50;;;5.18;;
50519;SDS011;36468;44.098;3.078;2022-08-19T07:37:35;7.53;;;4.93;;
50519;SDS011;36468;44.098;3.078;2022-08-19T07:40:03;6.07;;;4.20;;
50519;SDS011;36468;44.098;3.078;2022-08-19T07:42:29;8.10;;;4.20;;
50519;SDS011;36468;44.098;3.078;2022-08-19T07:44:55;12.40;;;5.47;;
50519;SDS011;36468;44.098;3.078;2022-08-19T07:47:21;7.28;;;5.00;;
50519;SDS011;36468;44.098;3.078;2022-08-19T07:49:47;9.70;;;5.00;;
50519;SDS011;36468;44.098;3.078;2022-08-19T07:52:13;8.25;;;4.90;;
50519;SDS011;36468;44.098;3.078;2022-08-19T07:54:41;6.55;;;4.30;;
50519;SDS011;36468;44.098;3.078;2022-08-19T07:57:07;6.05;;;4.20;;
50519;SDS011;36468;44.098;3.078;2022-08-19T07:59:33;6.25;;;4.00;;
50519;SDS011;36468;44.098;3.078;2022-08-19T08:01:59;10.57;;;4.32;;
50519;SDS011;36468;44.098;3.078;2022-08-19T08:04:26;7.82;;;4.57;;
50519;SDS011;36468;44.098;3.078;2022-08-19T08:07:11;12.68;;;4.28;;
50519;SDS011;36468;44.098;3.078;2022-08-19T08:09:55;7.50;;;4.30;;
50519;SDS011;36468;44.098;3.078;2022-08-19T08:12:27;7.40;;;4.30;;
50519;SDS011;36468;44.098;3.078;2022-08-19T08:14:55;6.05;;;4.20;;
50519;SDS011;36468;44.098;3.078;2022-08-19T08:17:22;8.23;;;4.10;;
50519;SDS011;36468;44.098;3.078;2022-08-19T08:19:48;8.48;;;3.72;;
50519;SDS011;36468;44.098;3.078;2022-08-19T08:22:16;8.32;;;3.30;;
50519;SDS011;36468;44.098;3.078;2022-08-19T08:25:05;7.97;;;4.10;;
50519;SDS011;36468;44.098;3.078;2022-08-19T08:27:31;7.72;;;4.13;;
50519;SDS011;36468;44.098;3.078;2022-08-19T08:30:02;6.47;;;3.78;;
50519;SDS011;36468;44.098;3.078;2022-08-19T08:32:29;6.63;;;3.30;;
50519;SDS011;36468;44.098;3.078;2022-08-19T08:34:55;5.72;;;3.40;;
50519;SDS011;36468;44.098;3.078;2022-08-19T08:37:21;6.68;;;3.40;;
50519;SDS011;36468;44.098;3.078;2022-08-19T08:39:47;6.32;;;3.53;;
50519;SDS011;36468;44.098;3.078;2022-08-19T08:42:16;7.47;;;3.20;;
50519;SDS011;36468;44.098;3.078;2022-08-19T08:44:51;7.65;;;3.35;;
50519;SDS011;36468;44.098;3.078;2022-08-19T08:47:18;7.07;;;3.75;;
50519;SDS011;36468;44.098;3.078;2022-08-19T08:54:45;6.78;;;2.95;;
50519;SDS011;36468;44.098;3.078;2022-08-19T08:59:47;4.75;;;2.80;;
50519;SDS011;36468;44.098;3.078;2022-08-19T09:02:16;5.85;;;2.78;;
50519;SDS011;36468;44.098;3.078;2022-08-19T09:04:42;10.17;;;2.63;;
50519;SDS011;36468;44.098;3.078;2022-08-19T09:07:12;6.18;;;2.80;;
50519;SDS011;36468;44.098;3.078;2022-08-19T09:09:43;4.18;;;2.65;;
50519;SDS011;36468;44.098;3.078;2022-08-19T09:15:06;4.53;;;2.17;;
50519;SDS011;36468;44.098;3.078;2022-08-19T09:17:33;5.22;;;2.10;;
50519;SDS011;36468;44.098;3.078;2022-08-19T09:22:29;7.93;;;2.33;;
50519;SDS011;36468;44.098;3.078;2022-08-19T09:24:56;7.03;;;2.28;;
50519;SDS011;36468;44.098;3.078;2022-08-19T09:27:22;4.60;;;1.90;;
50519;SDS011;36468;44.098;3.078;2022-08-19T09:29:49;6.22;;;2.33;;
50519;SDS011;36468;44.098;3.078;2022-08-19T09:32:15;5.82;;;1.98;;
50519;SDS011;36468;44.098;3.078;2022-08-19T09:34:43;5.30;;;2.63;;
50519;SDS011;36468;44.098;3.078;2022-08-19T09:37:09;4.07;;;2.20;;
50519;SDS011;36468;44.098;3.078;2022-08-19T09:39:36;3.45;;;1.83;;
50519;SDS011;36468;44.098;3.078;2022-08-19T09:42:02;4.63;;;2.25;;
50519;SDS011;36468;44.098;3.078;2022-08-19T09:44:29;4.55;;;2.10;;
50519;SDS011;36468;44.098;3.078;2022-08-19T09:46:55;4.22;;;1.88;;
50519;SDS011;36468;44.098;3.078;2022-08-19T09:49:21;3.88;;;1.77;;
50519;SDS011;36468;44.098;3.078;2022-08-19T09:51:51;4.57;;;2.00;;
50519;SDS011;36468;44.098;3.078;2022-08-19T09:54:20;8.18;;;1.60;;
50519;SDS011;36468;44.098;3.078;2022-08-19T09:56:47;6.80;;;1.60;;
50519;SDS011;36468;44.098;3.078;2022-08-19T09:59:13;4.88;;;1.50;;
50519;SDS011;36468;44.098;3.078;2022-08-19T10:01:39;2.63;;;1.60;;
50519;SDS011;36468;44.098;3.078;2022-08-19T10:04:05;4.10;;;1.50;;
50519;SDS011;36468;44.098;3.078;2022-08-19T10:06:35;2.25;;;1.35;;
50519;SDS011;36468;44.098;3.078;2022-08-19T10:09:02;4.82;;;1.67;;
50519;SDS011;36468;44.098;3.078;2022-08-19T10:11:31;5.25;;;1.35;;
50519;SDS011;36468;44.098;3.078;2022-08-19T10:13:57;3.65;;;1.42;;
50519;SDS011;36468;44.098;3.078;2022-08-19T10:16:24;1.77;;;1.27;;
50519;SDS011;36468;44.098;3.078;2022-08-19T10:18:51;2.40;;;1.30;;
50519;SDS011;36468;44.098;3.078;2022-08-19T10:21:27;6.15;;;1.40;;
50519;SDS011;36468;44.098;3.078;2022-08-19T10:23:55;4.68;;;1.30;;
50519;SDS011;36468;44.098;3.078;2022-08-19T10:26:23;3.25;;;1.23;;
50519;SDS011;36468;44.098;3.078;2022-08-19T10:28:50;4.45;;;1.65;;
50519;SDS011;36468;44.098;3.078;2022-08-19T10:31:18;2.45;;;1.20;;
50519;SDS011;36468;44.098;3.078;2022-08-19T10:33:45;5.75;;;1.30;;
50519;SDS011;36468;44.098;3.078;2022-08-19T10:36:13;2.50;;;1.15;;
50519;SDS011;36468;44.098;3.078;2022-08-19T10:38:43;2.08;;;1.00;;
50519;SDS011;36468;44.098;3.078;2022-08-19T10:41:29;4.10;;;1.10;;
50519;SDS011;36468;44.098;3.078;2022-08-19T10:43:57;3.13;;;1.25;;
50519;SDS011;36468;44.098;3.078;2022-08-19T10:46:24;3.42;;;1.10;;
50519;SDS011;36468;44.098;3.078;2022-08-19T10:48:51;5.70;;;1.67;;
50519;SDS011;36468;44.098;3.078;2022-08-19T10:51:17;2.83;;;1.20;;
50519;SDS011;36468;44.098;3.078;2022-08-19T10:54:02;1.85;;;1.10;;
50519;SDS011;36468;44.098;3.078;2022-08-19T10:56:28;2.60;;;1.08;;
50519;SDS011;36468;44.098;3.078;2022-08-19T10:59:13;2.17;;;1.15;;
50519;SDS011;36468;44.098;3.078;2022-08-19T11:01:40;6.03;;;1.65;;
50519;SDS011;36468;44.098;3.078;2022-08-19T11:04:07;4.57;;;1.27;;
50519;SDS011;36468;44.098;3.078;2022-08-19T11:06:36;5.15;;;1.20;;
50519;SDS011;36468;44.098;3.078;2022-08-19T11:09:03;6.70;;;1.02;;
50519;SDS011;36468;44.098;3.078;2022-08-19T11:11:30;1.92;;;1.05;;
50519;SDS011;36468;44.098;3.078;2022-08-19T11:13:57;5.03;;;1.35;;
50519;SDS011;36468;44.098;3.078;2022-08-19T11:16:24;3.30;;;1.10;;
50519;SDS011;36468;44.098;3.078;2022-08-19T11:18:52;6.32;;;1.40;;
50519;SDS011;36468;44.098;3.078;2022-08-19T11:21:22;4.72;;;1.02;;
50519;SDS011;36468;44.098;3.078;2022-08-19T11:23:50;5.93;;;1.43;;
50519;SDS011;36468;44.098;3.078;2022-08-19T11:26:17;2.85;;;1.05;;
50519;SDS011;36468;44.098;3.078;2022-08-19T11:28:43;3.53;;;1.40;;
50519;SDS011;36468;44.098;3.078;2022-08-19T11:31:11;2.25;;;1.40;;
50519;SDS011;36468;44.098;3.078;2022-08-19T11:33:37;2.75;;;1.17;;
50519;SDS011;36468;44.098;3.078;2022-08-19T11:36:03;3.50;;;1.60;;
50519;SDS011;36468;44.098;3.078;2022-08-19T11:38:29;5.72;;;1.48;;
50519;SDS011;36468;44.098;3.078;2022-08-19T11:40:56;8.10;;;1.40;;
50519;SDS011;36468;44.098;3.078;2022-08-19T11:43:22;3.45;;;1.38;;
50519;SDS011;36468;44.098;3.078;2022-08-19T11:45:49;4.18;;;1.70;;
50519;SDS011;36468;44.098;3.078;2022-08-19T11:48:15;2.75;;;1.50;;
50519;SDS011;36468;44.098;3.078;2022-08-19T11:50:41;6.65;;;1.60;;
50519;SDS011;36468;44.098;3.078;2022-08-19T11:53:08;6.85;;;1.73;;
50519;SDS011;36468;44.098;3.078;2022-08-19T11:55:38;4.35;;;1.70;;
50519;SDS011;36468;44.098;3.078;2022-08-19T11:58:05;2.30;;;1.70;;
50519;SDS011;36468;44.098;3.078;2022-08-19T12:00:33;5.85;;;1.50;;
50519;SDS011;36468;44.098;3.078;2022-08-19T12:03:00;7.57;;;2.00;;
50519;SDS011;36468;44.098;3.078;2022-08-19T12:05:26;3.20;;;1.35;;
50519;SDS011;36468;44.098;3.078;2022-08-19T12:07:52;6.15;;;1.30;;
50519;SDS011;36468;44.098;3.078;2022-08-19T12:10:19;4.88;;;1.80;;
50519;SDS011;36468;44.098;3.078;2022-08-19T12:12:45;2.17;;;1.30;;
50519;SDS011;36468;44.098;3.078;2022-08-19T12:15:11;5.70;;;2.00;;
50519;SDS011;36468;44.098;3.078;2022-08-19T12:17:39;4.28;;;1.65;;
50519;SDS011;36468;44.098;3.078;2022-08-19T12:20:06;5.03;;;1.88;;
50519;SDS011;36468;44.098;3.078;2022-08-19T12:22:34;7.25;;;2.20;;
50519;SDS011;36468;44.098;3.078;2022-08-19T12:25:00;3.97;;;1.83;;
50519;SDS011;36468;44.098;3.078;2022-08-19T12:27:26;3.13;;;1.63;;
50519;SDS011;36468;44.098;3.078;2022-08-19T12:29:52;8.55;;;1.95;;
50519;SDS011;36468;44.098;3.078;2022-08-19T12:32:18;2.65;;;1.80;;
50519;SDS011;36468;44.098;3.078;2022-08-19T12:34:44;5.40;;;1.90;;
50519;SDS011;36468;44.098;3.078;2022-08-19T12:37:12;4.80;;;1.80;;
50519;SDS011;36468;44.098;3.078;2022-08-19T12:39:40;6.78;;;1.85;;
50519;SDS011;36468;44.098;3.078;2022-08-19T12:42:10;4.68;;;1.90;;
50519;SDS011;36468;44.098;3.078;2022-08-19T12:44:38;3.22;;;1.75;;
50519;SDS011;36468;44.098;3.078;2022-08-19T12:47:04;6.03;;;2.20;;
50519;SDS011;36468;44.098;3.078;2022-08-19T12:49:32;3.78;;;1.83;;
50519;SDS011;36468;44.098;3.078;2022-08-19T12:52:01;3.80;;;1.60;;
50519;SDS011;36468;44.098;3.078;2022-08-19T12:54:28;4.43;;;1.63;;
50519;SDS011;36468;44.098;3.078;2022-08-19T12:56:55;2.35;;;1.60;;
50519;SDS011;36468;44.098;3.078;2022-08-19T12:59:21;6.95;;;2.10;;
50519;SDS011;36468;44.098;3.078;2022-08-19T13:01:47;4.20;;;1.80;;
50519;SDS011;36468;44.098;3.078;2022-08-19T13:04:13;10.50;;;2.13;;
50519;SDS011;36468;44.098;3.078;2022-08-19T13:06:40;5.78;;;2.25;;
50519;SDS011;36468;44.098;3.078;2022-08-19T13:09:07;6.85;;;2.10;;
50519;SDS011;36468;44.098;3.078;2022-08-19T13:11:33;4.20;;;1.70;;
50519;SDS011;36468;44.098;3.078;2022-08-19T13:13:59;4.13;;;1.90;;
50519;SDS011;36468;44.098;3.078;2022-08-19T13:16:26;3.30;;;2.22;;
50519;SDS011;36468;44.098;3.078;2022-08-19T13:18:53;6.10;;;2.00;;
50519;SDS011;36468;44.098;3.078;2022-08-19T13:21:20;4.10;;;1.83;;
50519;SDS011;36468;44.098;3.078;2022-08-19T13:23:47;6.07;;;2.30;;
50519;SDS011;36468;44.098;3.078;2022-08-19T13:26:15;11.32;;;2.10;;
50519;SDS011;36468;44.098;3.078;2022-08-19T13:28:42;2.78;;;1.80;;
50519;SDS011;36468;44.098;3.078;2022-08-19T13:31:28;5.18;;;2.17;;
50519;SDS011;36468;44.098;3.078;2022-08-19T13:34:13;7.10;;;1.90;;
50519;SDS011;36468;44.098;3.078;2022-08-19T13:36:40;4.05;;;1.92;;
50519;SDS011;36468;44.098;3.078;2022-08-19T13:39:07;2.95;;;1.80;;
50519;SDS011;36468;44.098;3.078;2022-08-19T13:41:34;5.20;;;1.80;;
50519;SDS011;36468;44.098;3.078;2022-08-19T13:44:01;4.95;;;2.28;;
50519;SDS011;36468;44.098;3.078;2022-08-19T13:46:27;2.97;;;1.92;;
50519;SDS011;36468;44.098;3.078;2022-08-19T13:48:54;5.78;;;1.98;;
50519;SDS011;36468;44.098;3.078;2022-08-19T13:51:21;8.40;;;2.22;;
50519;SDS011;36468;44.098;3.078;2022-08-19T13:53:47;6.40;;;2.13;;
50519;SDS011;36468;44.098;3.078;2022-08-19T13:56:14;6.22;;;2.17;;
50519;SDS011;36468;44.098;3.078;2022-08-19T13:58:41;4.68;;;2.25;;
50519;SDS011;36468;44.098;3.078;2022-08-19T14:01:08;9.93;;;2.28;;
50519;SDS011;36468;44.098;3.078;2022-08-19T14:03:35;8.25;;;2.20;;
50519;SDS011;36468;44.098;3.078;2022-08-19T14:06:02;6.20;;;2.40;;
50519;SDS011;36468;44.098;3.078;2022-08-19T14:08:28;4.10;;;2.30;;
50519;SDS011;36468;44.098;3.078;2022-08-19T14:10:57;6.40;;;2.10;;
50519;SDS011;36468;44.098;3.078;2022-08-19T14:13:23;8.35;;;2.58;;
50519;SDS011;36468;44.098;3.078;2022-08-19T14:15:49;5.00;;;2.00;;
50519;SDS011;36468;44.098;3.078;2022-08-19T14:18:16;5.82;;;1.92;;
50519;SDS011;36468;44.098;3.078;2022-08-19T14:20:43;4.60;;;2.00;;
50519;SDS011;36468;44.098;3.078;2022-08-19T14:23:09;4.97;;;2.50;;
50519;SDS011;36468;44.098;3.078;2022-08-19T14:25:37;3.28;;;1.67;;
50519;SDS011;36468;44.098;3.078;2022-08-19T14:28:03;4.53;;;2.08;;
50519;SDS011;36468;44.098;3.078;2022-08-19T14:30:31;5.35;;;2.20;;
50519;SDS011;36468;44.098;3.078;2022-08-19T14:32:58;3.85;;;1.90;;
50519;SDS011;36468;44.098;3.078;2022-08-19T14:35:24;7.68;;;2.00;;
50519;SDS011;36468;44.098;3.078;2022-08-19T14:37:51;3.35;;;1.73;;
50519;SDS011;36468;44.098;3.078;2022-08-19T14:40:23;7.82;;;2.10;;
50519;SDS011;36468;44.098;3.078;2022-08-19T14:42:54;3.13;;;1.67;;
50519;SDS011;36468;44.098;3.078;2022-08-19T14:45:24;3.45;;;1.80;;
50519;SDS011;36468;44.098;3.078;2022-08-19T14:47:50;5.22;;;1.73;;
50519;SDS011;36468;44.098;3.078;2022-08-19T14:50:17;7.55;;;1.73;;
50519;SDS011;36468;44.098;3.078;2022-08-19T14:52:43;6.05;;;1.90;;
50519;SDS011;36468;44.098;3.078;2022-08-19T14:55:09;5.00;;;1.90;;
50519;SDS011;36468;44.098;3.078;2022-08-19T14:57:35;4.63;;;2.00;;
50519;SDS011;36468;44.098;3.078;2022-08-19T15:00:01;4.47;;;1.77;;
50519;SDS011;36468;44.098;3.078;2022-08-19T15:02:27;3.45;;;1.70;;
50519;SDS011;36468;44.098;3.078;2022-08-19T15:04:53;4.00;;;1.85;;